createdAt,value
2023-04-08T00:03:04.233Z,11.68
2023-04-08T00:08:06.549Z,13.68
2023-04-08T00:13:08.411Z,13.43
2023-04-08T00:18:10.398Z,10.73
2023-04-08T00:23:12.228Z,13.55
2023-04-08T00:28:14.478Z,12.05
2023-04-08T00:33:16.653Z,13.20
2023-04-08T00:38:18.487Z,13.95
2023-04-08T00:43:21.453Z,13.60
2023-04-08T00:48:23.273Z,13.70
2023-04-08T00:53:25.821Z,14.32
2023-04-08T00:58:29.678Z,17.67
2023-04-08T01:03:57.803Z,11.32
2023-04-08T01:09:01.043Z,9.35
2023-04-08T01:14:07.168Z,10.05
2023-04-08T01:19:10.462Z,9.45
2023-04-08T01:24:29.809Z,9.43
2023-04-08T01:29:33.872Z,11.60
2023-04-08T01:34:37.153Z,8.77
2023-04-08T01:39:41.483Z,9.43
2023-04-08T01:44:43.865Z,9.43
2023-04-08T01:49:46.339Z,9.18
2023-04-08T01:54:48.224Z,10.43
2023-04-08T01:59:53.408Z,9.05
2023-04-08T02:04:55.954Z,9.43
2023-04-08T02:09:57.755Z,10.32
2023-04-08T02:14:59.640Z,12.18
2023-04-08T02:20:07.728Z,9.35
2023-04-08T02:25:14.461Z,10.10
2023-04-08T02:30:17.523Z,8.57
2023-04-08T02:35:20.349Z,9.60
2023-04-08T02:40:33.351Z,14.73
2023-04-08T02:45:41.377Z,9.75
2023-04-08T02:50:43.990Z,11.65
2023-04-08T02:55:46.024Z,14.63
2023-04-08T03:00:47.837Z,10.98
2023-04-08T03:05:57.337Z,13.40
2023-04-08T03:10:59.147Z,8.45
2023-04-08T03:16:01.157Z,11.18
2023-04-08T03:21:03.397Z,11.55
2023-04-08T03:26:05.258Z,17.48
2023-04-08T03:31:07.000Z,12.88
2023-04-08T03:36:08.780Z,14.55
2023-04-08T03:41:10.830Z,16.08
2023-04-08T03:46:12.674Z,15.18
2023-04-08T03:51:14.541Z,18.67
2023-04-08T03:56:16.314Z,18.92
2023-04-08T04:01:18.078Z,19.27
2023-04-08T04:06:19.834Z,18.92
2023-04-08T04:11:22.330Z,18.05
2023-04-08T04:16:24.146Z,18.95
2023-04-08T04:21:25.917Z,18.63
2023-04-08T04:26:27.702Z,18.17
2023-04-08T04:31:29.617Z,15.10
2023-04-08T04:36:32.137Z,17.40
2023-04-08T04:41:35.282Z,15.23
2023-04-08T04:46:37.081Z,18.48
2023-04-08T04:51:38.907Z,19.63
2023-04-08T04:56:40.682Z,16.65
2023-04-08T05:01:42.590Z,21.15
2023-04-08T05:06:44.443Z,18.52
2023-04-08T05:11:46.228Z,17.17
2023-04-08T05:16:48.425Z,21.20
2023-04-08T05:21:50.424Z,20.58
2023-04-08T05:26:53.345Z,26.73
2023-04-08T05:31:56.517Z,22.88
2023-04-08T05:36:58.299Z,25.17
2023-04-08T05:42:00.091Z,26.42
2023-04-08T05:47:02.404Z,26.27
2023-04-08T05:52:04.417Z,25.17
2023-04-08T05:57:06.127Z,25.05
2023-04-08T06:02:07.989Z,26.50
2023-04-08T06:07:09.998Z,31.92
2023-04-08T06:12:11.790Z,23.77
2023-04-08T06:17:13.662Z,28.98
2023-04-08T06:22:15.638Z,27.73
2023-04-08T06:27:17.369Z,27.95
2023-04-08T06:32:19.390Z,27.17
2023-04-08T06:37:21.152Z,28.55
2023-04-08T06:42:23.227Z,27.10
2023-04-08T06:47:40.610Z,27.37
2023-04-08T06:52:42.342Z,29.98
2023-04-08T06:57:44.182Z,31.27
2023-04-08T07:02:46.275Z,30.67
2023-04-08T07:07:48.178Z,31.38
2023-04-08T07:12:51.064Z,31.42
2023-04-08T07:17:53.102Z,29.75
2023-04-08T07:22:54.911Z,29.55
2023-04-08T07:27:57.138Z,28.48
2023-04-08T07:33:00.718Z,30.83
2023-04-08T07:38:02.936Z,25.60
2023-04-08T07:43:04.692Z,23.77
2023-04-08T07:48:06.754Z,22.98
2023-04-08T07:53:09.924Z,22.13
2023-04-08T07:58:12.217Z,24.52
2023-04-08T08:03:14.068Z,21.60
2023-04-08T08:08:16.036Z,19.83
2023-04-08T08:13:21.157Z,18.27
2023-04-08T08:18:25.953Z,20.08
2023-04-08T08:23:28.016Z,16.85
2023-04-08T08:28:29.797Z,14.25
2023-04-08T08:33:34.902Z,14.07
2023-04-08T08:38:36.659Z,13.07
2023-04-08T08:43:38.999Z,12.32
2023-04-08T08:48:40.830Z,12.07
2023-04-08T08:53:45.595Z,10.75
2023-04-08T08:58:47.987Z,11.27
2023-04-08T09:04:06.952Z,10.70
2023-04-08T09:09:11.964Z,11.63
2023-04-08T09:14:25.519Z,10.25
2023-04-08T09:19:27.271Z,6.53
2023-04-08T09:24:31.127Z,6.03
2023-04-08T09:29:36.427Z,6.70
2023-04-08T09:34:40.388Z,6.43
2023-04-08T09:39:42.150Z,6.80
2023-04-08T09:44:46.647Z,13.30
2023-04-08T09:49:55.167Z,6.85
2023-04-08T09:55:06.467Z,28.63
2023-04-08T10:00:14.001Z,6.28
2023-04-08T10:05:17.160Z,5.45
2023-04-08T10:10:20.792Z,15.27
2023-04-08T10:15:25.486Z,5.03
2023-04-08T10:20:36.491Z,5.20
2023-04-08T10:25:42.848Z,5.20
2023-04-08T10:30:48.770Z,5.82
2023-04-08T10:35:54.327Z,5.38
2023-04-08T10:40:56.162Z,6.88
2023-04-08T10:45:57.961Z,4.80
2023-04-08T10:51:06.604Z,5.70
2023-04-08T10:56:16.296Z,4.85
2023-04-08T11:01:18.712Z,5.40
2023-04-08T11:06:20.504Z,4.03
2023-04-08T11:11:23.814Z,3.50
2023-04-08T11:16:28.045Z,8.48
2023-04-08T11:21:31.754Z,24.92
2023-04-08T11:26:34.399Z,13.30
2023-04-08T11:31:36.596Z,13.48
2023-04-08T11:36:41.515Z,11.27
2023-04-08T11:41:43.349Z,4.95
2023-04-08T11:46:57.182Z,4.53
2023-04-08T11:52:00.236Z,6.50
2023-04-08T11:57:03.081Z,4.65
2023-04-08T12:02:04.840Z,4.35
2023-04-08T12:07:06.659Z,4.75
2023-04-08T12:12:08.406Z,3.97
2023-04-08T12:17:10.613Z,4.68
2023-04-08T12:22:12.499Z,4.57
2023-04-08T12:27:14.288Z,4.43
2023-04-08T12:32:16.359Z,4.90
2023-04-08T12:37:18.228Z,4.82
2023-04-08T12:42:19.996Z,4.53
2023-04-08T12:47:22.245Z,5.82
2023-04-08T12:52:25.494Z,5.95
2023-04-08T12:57:28.361Z,6.35
2023-04-08T13:02:30.536Z,6.60
2023-04-08T13:07:32.397Z,6.38
2023-04-08T13:12:34.279Z,7.20
2023-04-08T13:17:36.068Z,7.78
2023-04-08T13:22:37.832Z,7.65
2023-04-08T13:27:39.573Z,7.80
2023-04-08T13:32:41.318Z,8.90
2023-04-08T13:37:43.382Z,7.90
2023-04-08T13:42:45.175Z,8.13
2023-04-08T13:47:47.200Z,8.43
2023-04-08T13:52:49.004Z,7.80
2023-04-08T13:57:51.021Z,8.10
2023-04-08T14:02:53.150Z,9.10
2023-04-08T14:07:55.237Z,8.60
2023-04-08T14:12:57.007Z,9.93
2023-04-08T14:17:58.798Z,30.42
2023-04-08T14:23:00.957Z,19.10
2023-04-08T14:28:02.697Z,62.22
2023-04-08T14:33:05.426Z,11.35
2023-04-08T14:38:07.317Z,18.38
2023-04-08T14:43:09.081Z,13.82
2023-04-08T14:48:11.237Z,11.23
2023-04-08T14:53:12.970Z,10.80
2023-04-08T14:58:14.888Z,8.32
2023-04-08T15:03:17.989Z,9.10
2023-04-08T15:08:30.800Z,8.57
2023-04-08T15:13:32.681Z,8.32
2023-04-08T15:18:34.495Z,7.97
2023-04-08T15:23:40.571Z,7.90
2023-04-08T15:28:42.587Z,7.03
2023-04-08T15:33:46.470Z,7.60
2023-04-08T15:38:49.602Z,22.98
2023-04-08T15:43:52.601Z,32.30
2023-04-08T15:48:54.845Z,8.38
2023-04-08T15:53:57.425Z,7.78
2023-04-08T15:58:59.194Z,7.15
2023-04-08T16:04:01.725Z,8.23
2023-04-08T16:09:03.707Z,8.20
2023-04-08T16:14:05.652Z,9.48
2023-04-08T16:19:08.219Z,45.20
2023-04-08T16:24:09.987Z,26.02
2023-04-08T16:29:11.728Z,8.10
2023-04-08T16:34:13.681Z,26.02
2023-04-08T16:39:15.521Z,16.73
2023-04-08T16:44:17.336Z,8.27
2023-04-08T16:49:19.365Z,8.48
2023-04-08T16:54:21.165Z,18.73
2023-04-08T16:59:22.970Z,9.43
2023-04-08T17:04:24.750Z,7.40
2023-04-08T17:09:26.474Z,7.65
2023-04-08T17:14:28.339Z,17.30
2023-04-08T17:19:30.054Z,11.93
2023-04-08T17:24:31.826Z,7.57
2023-04-08T17:29:33.611Z,6.07
2023-04-08T17:34:35.350Z,6.07
2023-04-08T17:39:40.712Z,6.60
2023-04-08T17:44:44.573Z,5.63
2023-04-08T17:49:46.403Z,5.28
2023-04-08T17:54:48.225Z,6.32
2023-04-08T17:59:50.048Z,5.55
2023-04-08T18:04:52.377Z,6.85
2023-04-08T18:09:54.211Z,6.22
2023-04-08T18:14:58.054Z,6.68
2023-04-08T18:19:59.778Z,6.13
2023-04-08T18:25:01.516Z,5.28
2023-04-08T18:30:03.579Z,6.43
2023-04-08T18:35:05.971Z,6.32
2023-04-08T18:40:08.488Z,5.97
2023-04-08T18:45:10.345Z,7.10
2023-04-08T18:50:12.140Z,6.68
2023-04-08T18:55:13.946Z,7.05
2023-04-08T19:00:15.988Z,14.90
2023-04-08T19:05:17.855Z,6.93
2023-04-08T19:10:21.406Z,8.75
2023-04-08T19:15:23.245Z,6.63
2023-04-08T19:20:25.131Z,7.50
2023-04-08T19:25:26.866Z,7.28
2023-04-08T19:30:28.610Z,7.38
2023-04-08T19:35:30.510Z,6.60
2023-04-08T19:40:32.397Z,11.85
2023-04-08T19:45:34.509Z,9.07
2023-04-08T19:50:39.719Z,9.75
2023-04-08T19:55:41.628Z,9.25
2023-04-08T20:00:43.486Z,9.75
2023-04-08T20:05:48.364Z,10.40
2023-04-08T20:10:50.251Z,8.80
2023-04-08T20:15:52.380Z,8.15
2023-04-08T20:20:54.636Z,12.27
2023-04-08T20:25:56.687Z,11.07
2023-04-08T20:30:58.492Z,8.15
2023-04-08T20:36:00.300Z,8.25
2023-04-08T20:41:02.163Z,7.95
2023-04-08T20:46:06.158Z,8.07
2023-04-08T20:51:07.969Z,7.18
2023-04-08T20:56:09.807Z,6.68
2023-04-08T21:01:12.167Z,6.80
2023-04-08T21:06:20.827Z,7.95
2023-04-08T21:11:22.760Z,7.50
2023-04-08T21:16:24.602Z,7.70
2023-04-08T21:21:27.558Z,7.30
2023-04-08T21:26:29.327Z,7.43
2023-04-08T21:31:31.645Z,7.00
2023-04-08T21:36:33.543Z,7.60
2023-04-08T21:41:35.325Z,6.72
2023-04-08T21:46:37.061Z,7.05
2023-04-08T21:51:39.370Z,6.50
2023-04-08T21:56:42.606Z,6.45
2023-04-08T22:01:44.536Z,6.65
2023-04-08T22:06:49.246Z,6.20
2023-04-08T22:11:51.232Z,6.95
2023-04-08T22:16:53.416Z,8.73
2023-04-08T22:21:55.200Z,6.55
2023-04-08T22:26:57.420Z,6.72
2023-04-08T22:31:59.304Z,6.00
2023-04-08T22:37:01.295Z,7.00
2023-04-08T22:42:03.045Z,6.32
2023-04-08T22:47:04.782Z,6.45
2023-04-08T22:52:06.527Z,6.63
2023-04-08T22:57:08.282Z,5.68
2023-04-08T23:02:10.239Z,6.20
2023-04-08T23:07:12.282Z,6.97
2023-04-08T23:12:14.119Z,7.20
2023-04-08T23:17:16.003Z,6.18
2023-04-08T23:22:17.857Z,6.15
2023-04-08T23:27:19.635Z,6.40
2023-04-08T23:32:21.474Z,6.40
2023-04-08T23:37:24.691Z,6.60
2023-04-08T23:42:27.223Z,8.10
2023-04-08T23:47:31.147Z,7.03
2023-04-08T23:52:32.966Z,7.05
2023-04-08T23:57:34.731Z,7.18
